地図

経路データ

SID SEASON NUMBER BASIN SUBBASIN NAME ISO_TIME NATURE LAT LON WMO_WIND WMO_PRES WMO_AGENCY TRACK_TYPE DIST2LAND LANDFALL IFLAG USA_AGENCY USA_ATCF_ID USA_LAT USA_LON USA_RECORD USA_STATUS USA_WIND USA_PRES USA_SSHS USA_R34_NE USA_R34_SE USA_R34_SW USA_R34_NW USA_R50_NE USA_R50_SE USA_R50_SW USA_R50_NW USA_R64_NE USA_R64_SE USA_R64_SW USA_R64_NW USA_POCI USA_ROCI USA_RMW USA_EYE TOKYO_LAT TOKYO_LON TOKYO_GRADE TOKYO_WIND TOKYO_PRES TOKYO_R50_DIR TOKYO_R50_LONG TOKYO_R50_SHORT TOKYO_R30_DIR TOKYO_R30_LONG TOKYO_R30_SHORT TOKYO_LAND CMA_LAT CMA_LON CMA_CAT CMA_WIND CMA_PRES HKO_LAT HKO_LON HKO_CAT HKO_WIND HKO_PRES NEWDELHI_LAT NEWDELHI_LON NEWDELHI_GRADE NEWDELHI_WIND NEWDELHI_PRES NEWDELHI_CI NEWDELHI_DP NEWDELHI_POCI REUNION_LAT REUNION_LON REUNION_TYPE REUNION_WIND REUNION_PRES REUNION_TNUM REUNION_CI REUNION_RMW REUNION_R34_NE REUNION_R34_SE REUNION_R34_SW REUNION_R34_NW REUNION_R50_NE REUNION_R50_SE REUNION_R50_SW REUNION_R50_NW REUNION_R64_NE REUNION_R64_SE REUNION_R64_SW REUNION_R64_NW BOM_LAT BOM_LON BOM_TYPE BOM_WIND BOM_PRES BOM_TNUM BOM_CI BOM_RMW BOM_R34_NE BOM_R34_SE BOM_R34_SW BOM_R34_NW BOM_R50_NE BOM_R50_SE BOM_R50_SW BOM_R50_NW BOM_R64_NE BOM_R64_SE BOM_R64_SW BOM_R64_NW BOM_ROCI BOM_POCI BOM_EYE BOM_POS_METHOD BOM_PRES_METHOD NADI_LAT NADI_LON NADI_CAT NADI_WIND NADI_PRES WELLINGTON_LAT WELLINGTON_LON WELLINGTON_WIND WELLINGTON_PRES DS824_LAT DS824_LON DS824_STAGE DS824_WIND DS824_PRES TD9636_LAT TD9636_LON TD9636_STAGE TD9636_WIND TD9636_PRES TD9635_LAT TD9635_LON TD9635_WIND TD9635_PRES TD9635_ROCI NEUMANN_LAT NEUMANN_LON NEUMANN_CLASS NEUMANN_WIND NEUMANN_PRES MLC_LAT MLC_LON MLC_CLASS MLC_WIND MLC_PRES USA_GUST BOM_GUST BOM_GUST_PER REUNION_GUST REUNION_GUST_PER USA_SEAHGT USA_SEARAD_NE USA_SEARAD_SE USA_SEARAD_SW USA_SEARAD_NW STORM_SPEED STORM_DIR
1922308N08130 1922 61 WP MM NOT_NAMED 1922-11-04 10:00:00 NR 7.80000 129.600 main 331 331 __________O___ -1 7.80000 129.600 2 6 99
1922308N08130 1922 61 WP MM NOT_NAMED 1922-11-04 12:00:00 NR 7.76840 129.801 main 353 353 __________P___ -1 7.76840 129.801 2 5 99
1922308N08130 1922 61 WP MM NOT_NAMED 1922-11-04 15:00:00 NR 7.73279 130.009 main 375 375 __________P___ -1 7.73279 130.009 2 2 103
1922308N08130 1922 61 WP MM NOT_NAMED 1922-11-04 18:00:00 NR 7.72777 129.974 main 375 331 __________P___ -1 7.72777 129.974 2 5 275
1922308N08130 1922 61 WP MM NOT_NAMED 1922-11-04 21:00:00 NR 7.77157 129.552 main 331 297 __________P___ -1 7.77157 129.552 2 10 276
1922308N08130 1922 61 WP MM NOT_NAMED 1922-11-04 22:00:00 NR 7.80000 129.300 main 297 221 __________O___ -1 7.80000 129.300 2 19 277
1922308N08130 1922 61 WP MM NOT_NAMED 1922-11-05 00:00:00 NR 7.87866 128.613 main 221 74 __________P___ -1 7.87866 128.613 2 25 276
1922308N08130 1922 61 WP MM NOT_NAMED 1922-11-05 03:00:00 NR 8.03372 127.229 main 74 0 __________P___ -1 8.03372 127.229 2 30 276
1922308N08130 1922 61 WP MM NOT_NAMED 1922-11-05 06:00:00 NR 8.20363 125.599 main 0 0 __________P___ -1 8.20363 125.599 2 33 276
1922308N08130 1922 61 WP MM NOT_NAMED 1922-11-05 09:00:00 NR 8.35728 123.930 main 11 0 __________P___ -1 8.35728 123.930 2 33 275
1922308N08130 1922 61 WP MM NOT_NAMED 1922-11-05 10:00:00 NR 8.40000 123.400 main 0 0 __________O___ -1 8.40000 123.400 2 29 274
1922308N08130 1922 61 WP MM NOT_NAMED 1922-11-05 12:00:00 NR 8.45817 122.463 main 44 46 __________P___ -1 8.45817 122.463 2 27 273
1922308N08130 1922 61 WP MM NOT_NAMED 1922-11-05 15:00:00 NR 8.52117 121.114 main 133 143 __________P___ -1 8.52117 121.114 2 26 272
1922308N08130 1922 61 WP MM NOT_NAMED 1922-11-05 18:00:00 NR 8.56268 119.861 main 172 80 __________P___ -1 8.56268 119.861 2 24 272
1922308N08130 1922 61 WP MM NOT_NAMED 1922-11-05 21:00:00 NR 8.59159 118.739 main 80 64 __________P___ -1 8.59159 118.739 2 22 271
1922308N08130 1922 61 WP MM NOT_NAMED 1922-11-05 22:00:00 NR 8.60000 118.400 main 55 15 __________O___ -1 8.60000 118.400 2 19 271
1922308N08130 1922 61 WP MM NOT_NAMED 1922-11-06 00:00:00 NR 8.61280 117.789 main 15 0 __________P___ -1 8.61280 117.789 2 17 271
1922308N08130 1922 61 WP MM NOT_NAMED 1922-11-06 03:00:00 NR 8.62694 116.998 main 33 33 __________P___ -1 8.62694 116.998 2 15 271
1922308N08130 1922 61 WP MM NOT_NAMED 1922-11-06 06:00:00 NR 8.64609 116.299 main 104 104 __________P___ -1 8.64609 116.299 2 14 272
1922308N08130 1922 61 WP MM NOT_NAMED 1922-11-06 09:00:00 NR 8.68220 115.629 main 181 181 __________P___ -1 8.68220 115.629 2 13 273
1922308N08130 1922 61 WP MM NOT_NAMED 1922-11-06 10:00:00 NR 8.70000 115.400 main 203 203 __________O___ -1 8.70000 115.400 2 15 275
1922308N08130 1922 61 WP MM NOT_NAMED 1922-11-06 12:00:00 NR 8.75194 114.884 main 259 270 __________P___ -1 8.75194 114.884 2 16 277
1922308N08130 1922 61 WP MM NOT_NAMED 1922-11-06 15:00:00 NR 8.84903 114.103 main 345 347 __________P___ -1 8.84903 114.103 2 16 278
1922308N08130 1922 61 WP MM NOT_NAMED 1922-11-06 18:00:00 NR 8.95795 113.323 main 436 436 __________P___ -1 8.95795 113.323 2 15 278
1922308N08130 1922 61 WP MM NOT_NAMED 1922-11-06 21:00:00 NR 9.06621 112.553 main 470 443 __________P___ -1 9.06621 112.553 2 15 278
1922308N08130 1922 61 WP MM NOT_NAMED 1922-11-06 22:00:00 NR 9.10000 112.300 main 443 393 __________O___ -1 9.10000 112.300 3 15 277
1922308N08130 1922 61 WP MM NOT_NAMED 1922-11-07 00:00:00 NR 9.15254 111.813 main 393 337 __________P___ -1 9.15254 111.813 3 14 276
1922308N08130 1922 61 WP MM NOT_NAMED 1922-11-07 03:00:00 NR 9.22534 111.095 main 337 280 __________P___ -1 9.22534 111.095 3 14 276
1922308N08130 1922 61 WP MM NOT_NAMED 1922-11-07 06:00:00 NR 9.29660 110.379 main 280 220 __________P___ -1 9.29660 110.379 3 14 276
1922308N08130 1922 61 WP MM NOT_NAMED 1922-11-07 09:00:00 NR 9.37257 109.649 main 220 206 __________P___ -1 9.37257 109.649 3 15 276
1922308N08130 1922 61 WP MM NOT_NAMED 1922-11-07 10:00:00 NR 9.40000 109.400 main 206 166 __________O___ -1 9.40000 109.400 4 15 277
1922308N08130 1922 61 WP MM NOT_NAMED 1922-11-07 12:00:00 NR 9.45889 108.891 main 166 123 __________P___ -1 9.45889 108.891 4 15 277
1922308N08130 1922 61 WP MM NOT_NAMED 1922-11-07 15:00:00 NR 9.55550 108.103 main 123 69 __________P___ -1 9.55550 108.103 4 16 277
1922308N08130 1922 61 WP MM NOT_NAMED 1922-11-07 18:00:00 NR 9.65866 107.295 main 69 0 __________P___ -1 9.65866 107.295 4 16 277
1922308N08130 1922 61 WP MM NOT_NAMED 1922-11-07 21:00:00 NR 9.76467 106.475 main 0 0 __________P___ -1 9.76467 106.475 4 16 277
1922308N08130 1922 61 WP MM NOT_NAMED 1922-11-07 22:00:00 NR 9.80000 106.200 main 0 __________O___ -1 9.80000 106.200 7 16 277

デジタル台風データ・検索

IBTrACS Databaseについて

本データベースは、米国NOAAが公開する1842年以降の世界の熱帯低気圧のベストトラックデータアーカイブInternational Best Track Archive for Climate Stewardship (IBTrACS)を、ウェブで閲覧しやすい形式に変換したものです。

最終更新日:2021-10-08